Strona główna
METAR-TAF:

METAR-TAF

Lotnisko :

Port lotniczy Sultan Aji Muhammad Sulaiman

Balikpapan, Indonezja

Szerokość geograficzna: 01-16-06S, Długość geograficzna: 116-53-40E, wysokość: 4 m

Aktualna obserwacja pogody

Raport powstał 1 godzina i 0 minut temu, godzina 08:30 UTC
Wiatr 5 kt od południowo-południowy zachód
Temperatura 30°C
Wilgotność 84%
Ciśnienie
Widzialność 10 km lub więcej
Mało chmury na wysokości 2000 ft, Cumulonimbus.
Mało chmury na wysokości 2000 ft

METAR: WALL 040830Z 21005KT 9999 FEW020CB FEW020 30/27 Q1007RMK CB TO N

czas: 16:30 (09:30 UTC)

Prognoza

Raport powstał 22 godziny i 30 minut temu, godzina 11:00 UTC
Prognoza ważna od 03 godzina 12 UTC do 04 godzina 18 UTC
Wiatr 2 kt od wschód
Widzialność: 9000 m
Mało chmury na wysokości 2000 ft
Prawdopodobieństwo 30% :
Przejściowo
od 03 godzina 21 UTC do 03 godzina 24 UTC
Widzialność: 4000 m
Przerywane chmury na wysokości 1500 ft
przelotny opad deszczu

TAF: WALL 031100Z 0312/0418 09002KT 9000 FEW020 PROB30 TEMPO 0321/0324 4000 SHRA BKN015

Obserwacja i prognoza pogody dla ponad 4000 lotnisk (raport METAR i TAF).

Dostępne stacje oznaczono żółtymi i czerwonymi punktami na mapie.

Najedź kursorem aby zobaczyć nazwę stacji.

Kliknij aby zobaczyć obserwacje i prognozy pogody.

Aby zmienić mapę: kliknij na zielony przycisk z czarnym krzyżykiem, aby powiększyć; na zielony przycisk z myślnikiem, aby pomniejszyć; na zielone strzałki, aby przejść do map sąsiednich.


METAR-TAF: